sensor_id;sensor_type;location;lat;lon;timestamp;pressure;altitude;pressure_sealevel;temperature
34023;BMP280;20673;48.980;8.138;2022-12-17T00:02:13;100688.82;;;-7.04
34023;BMP280;20673;48.980;8.138;2022-12-17T00:04:57;100689.39;;;-7.11
34023;BMP280;20673;48.980;8.138;2022-12-17T00:07:41;100691.48;;;-7.11
34023;BMP280;20673;48.980;8.138;2022-12-17T00:10:25;100699.61;;;-7.19
34023;BMP280;20673;48.980;8.138;2022-12-17T00:13:20;100699.11;;;-7.21
34023;BMP280;20673;48.980;8.138;2022-12-17T00:16:01;100697.98;;;-7.26
34023;BMP280;20673;48.980;8.138;2022-12-17T00:18:45;100704.81;;;-7.27
34023;BMP280;20673;48.980;8.138;2022-12-17T00:21:29;100703.04;;;-7.26
34023;BMP280;20673;48.980;8.138;2022-12-17T00:24:13;100704.93;;;-7.30
34023;BMP280;20673;48.980;8.138;2022-12-17T00:26:58;100707.44;;;-7.34
34023;BMP280;20673;48.980;8.138;2022-12-17T00:29:42;100712.64;;;-7.37
34023;BMP280;20673;48.980;8.138;2022-12-17T00:32:26;100712.12;;;-7.39
34023;BMP280;20673;48.980;8.138;2022-12-17T00:35:10;100708.88;;;-7.46
34023;BMP280;20673;48.980;8.138;2022-12-17T00:37:54;100711.26;;;-7.49
34023;BMP280;20673;48.980;8.138;2022-12-17T00:40:38;100713.06;;;-7.52
34023;BMP280;20673;48.980;8.138;2022-12-17T00:43:22;100712.79;;;-7.53
34023;BMP280;20673;48.980;8.138;2022-12-17T00:46:06;100717.62;;;-7.54
34023;BMP280;20673;48.980;8.138;2022-12-17T00:48:51;100716.90;;;-7.55
34023;BMP280;20673;48.980;8.138;2022-12-17T00:51:35;100714.33;;;-7.55
34023;BMP280;20673;48.980;8.138;2022-12-17T00:54:19;100716.77;;;-7.57
34023;BMP280;20673;48.980;8.138;2022-12-17T00:57:04;100722.00;;;-7.58
34023;BMP280;20673;48.980;8.138;2022-12-17T00:59:48;100724.39;;;-7.60
34023;BMP280;20673;48.980;8.138;2022-12-17T01:02:32;100721.75;;;-7.60
34023;BMP280;20673;48.980;8.138;2022-12-17T01:05:16;100722.47;;;-7.59
34023;BMP280;20673;48.980;8.138;2022-12-17T01:08:08;100719.09;;;-7.63
34023;BMP280;20673;48.980;8.138;2022-12-17T01:11:01;100728.75;;;-7.60
34023;BMP280;20673;48.980;8.138;2022-12-17T01:13:46;100736.74;;;-7.65
34023;BMP280;20673;48.980;8.138;2022-12-17T01:16:30;100738.74;;;-7.66
34023;BMP280;20673;48.980;8.138;2022-12-17T01:19:15;100743.28;;;-7.64
34023;BMP280;20673;48.980;8.138;2022-12-17T01:21:59;100743.53;;;-7.69
34023;BMP280;20673;48.980;8.138;2022-12-17T01:24:44;100747.79;;;-7.69
34023;BMP280;20673;48.980;8.138;2022-12-17T01:27:28;100751.03;;;-7.72
34023;BMP280;20673;48.980;8.138;2022-12-17T01:30:12;100749.51;;;-7.73
34023;BMP280;20673;48.980;8.138;2022-12-17T01:33:04;100754.18;;;-7.74
34023;BMP280;20673;48.980;8.138;2022-12-17T01:35:49;100760.34;;;-7.76
34023;BMP280;20673;48.980;8.138;2022-12-17T01:38:33;100768.74;;;-7.80
34023;BMP280;20673;48.980;8.138;2022-12-17T01:41:18;100766.50;;;-7.79
34023;BMP280;20673;48.980;8.138;2022-12-17T01:47:26;100762.15;;;-7.82
34023;BMP280;20673;48.980;8.138;2022-12-17T01:50:11;100771.62;;;-7.86
34023;BMP280;20673;48.980;8.138;2022-12-17T01:52:58;100771.61;;;-7.87
34023;BMP280;20673;48.980;8.138;2022-12-17T01:55:44;100778.20;;;-7.92
34023;BMP280;20673;48.980;8.138;2022-12-17T01:58:29;100782.19;;;-7.91
34023;BMP280;20673;48.980;8.138;2022-12-17T02:01:13;100784.54;;;-7.97
34023;BMP280;20673;48.980;8.138;2022-12-17T02:03:58;100789.03;;;-7.91
34023;BMP280;20673;48.980;8.138;2022-12-17T02:06:50;100793.23;;;-7.94
34023;BMP280;20673;48.980;8.138;2022-12-17T02:09:37;100794.34;;;-7.99
34023;BMP280;20673;48.980;8.138;2022-12-17T02:12:29;100792.78;;;-8.03
34023;BMP280;20673;48.980;8.138;2022-12-17T02:15:20;100797.61;;;-8.07
34023;BMP280;20673;48.980;8.138;2022-12-17T02:18:07;100797.83;;;-8.09
34023;BMP280;20673;48.980;8.138;2022-12-17T02:20:53;100797.73;;;-8.17
34023;BMP280;20673;48.980;8.138;2022-12-17T02:24:01;100805.83;;;-8.21
34023;BMP280;20673;48.980;8.138;2022-12-17T02:26:48;100798.36;;;-8.22
34023;BMP280;20673;48.980;8.138;2022-12-17T02:29:43;100800.04;;;-8.27
34023;BMP280;20673;48.980;8.138;2022-12-17T02:32:27;100799.58;;;-8.30
34023;BMP280;20673;48.980;8.138;2022-12-17T02:35:16;100799.01;;;-8.31
34023;BMP280;20673;48.980;8.138;2022-12-17T02:38:01;100799.98;;;-8.35
34023;BMP280;20673;48.980;8.138;2022-12-17T02:40:47;100798.45;;;-8.38
34023;BMP280;20673;48.980;8.138;2022-12-17T02:43:33;100801.40;;;-8.44
34023;BMP280;20673;48.980;8.138;2022-12-17T02:46:18;100806.07;;;-8.48
34023;BMP280;20673;48.980;8.138;2022-12-17T02:49:03;100805.79;;;-8.45
34023;BMP280;20673;48.980;8.138;2022-12-17T02:51:48;100812.17;;;-8.49
34023;BMP280;20673;48.980;8.138;2022-12-17T02:54:33;100817.30;;;-8.50
34023;BMP280;20673;48.980;8.138;2022-12-17T02:57:18;100822.29;;;-8.54
34023;BMP280;20673;48.980;8.138;2022-12-17T03:00:04;100823.22;;;-8.60
34023;BMP280;20673;48.980;8.138;2022-12-17T03:02:48;100819.65;;;-8.68
34023;BMP280;20673;48.980;8.138;2022-12-17T03:05:32;100822.99;;;-8.70
34023;BMP280;20673;48.980;8.138;2022-12-17T03:08:17;100819.61;;;-8.73
34023;BMP280;20673;48.980;8.138;2022-12-17T03:11:02;100824.26;;;-8.71
34023;BMP280;20673;48.980;8.138;2022-12-17T03:13:46;100832.68;;;-8.69
34023;BMP280;20673;48.980;8.138;2022-12-17T03:16:31;100831.15;;;-8.76
34023;BMP280;20673;48.980;8.138;2022-12-17T03:19:15;100839.39;;;-8.79
34023;BMP280;20673;48.980;8.138;2022-12-17T03:22:00;100832.26;;;-8.84
34023;BMP280;20673;48.980;8.138;2022-12-17T03:24:44;100834.90;;;-8.84
34023;BMP280;20673;48.980;8.138;2022-12-17T03:27:28;100836.58;;;-8.88
34023;BMP280;20673;48.980;8.138;2022-12-17T03:30:12;100834.25;;;-8.95
34023;BMP280;20673;48.980;8.138;2022-12-17T03:32:57;100841.01;;;-8.96
34023;BMP280;20673;48.980;8.138;2022-12-17T03:35:43;100840.93;;;-8.97
34023;BMP280;20673;48.980;8.138;2022-12-17T03:38:27;100850.83;;;-8.99
34023;BMP280;20673;48.980;8.138;2022-12-17T03:41:12;100856.06;;;-8.98
34023;BMP280;20673;48.980;8.138;2022-12-17T03:43:56;100856.78;;;-8.99
34023;BMP280;20673;48.980;8.138;2022-12-17T03:46:40;100864.22;;;-9.01
34023;BMP280;20673;48.980;8.138;2022-12-17T03:49:25;100864.15;;;-9.03
34023;BMP280;20673;48.980;8.138;2022-12-17T03:52:09;100863.39;;;-9.01
34023;BMP280;20673;48.980;8.138;2022-12-17T03:54:53;100864.45;;;-9.08
34023;BMP280;20673;48.980;8.138;2022-12-17T03:57:38;100867.30;;;-9.10
34023;BMP280;20673;48.980;8.138;2022-12-17T04:00:22;100866.00;;;-9.10
34023;BMP280;20673;48.980;8.138;2022-12-17T04:03:07;100873.50;;;-9.12
34023;BMP280;20673;48.980;8.138;2022-12-17T04:05:51;100874.53;;;-9.14
34023;BMP280;20673;48.980;8.138;2022-12-17T04:08:36;100876.15;;;-9.19
34023;BMP280;20673;48.980;8.138;2022-12-17T04:11:20;100879.25;;;-9.22
34023;BMP280;20673;48.980;8.138;2022-12-17T04:14:05;100881.17;;;-9.28
34023;BMP280;20673;48.980;8.138;2022-12-17T04:16:49;100885.59;;;-9.25
34023;BMP280;20673;48.980;8.138;2022-12-17T04:19:34;100892.90;;;-9.29
34023;BMP280;20673;48.980;8.138;2022-12-17T04:22:18;100894.53;;;-9.33
34023;BMP280;20673;48.980;8.138;2022-12-17T04:25:03;100897.29;;;-9.32
34023;BMP280;20673;48.980;8.138;2022-12-17T04:27:47;100895.48;;;-9.31
34023;BMP280;20673;48.980;8.138;2022-12-17T04:30:31;100895.97;;;-9.34
34023;BMP280;20673;48.980;8.138;2022-12-17T04:33:16;100895.45;;;-9.35
34023;BMP280;20673;48.980;8.138;2022-12-17T04:36:00;100896.09;;;-9.35
34023;BMP280;20673;48.980;8.138;2022-12-17T04:38:44;100900.83;;;-9.40
34023;BMP280;20673;48.980;8.138;2022-12-17T04:41:28;100904.01;;;-9.44
34023;BMP280;20673;48.980;8.138;2022-12-17T04:44:13;100906.15;;;-9.45
34023;BMP280;20673;48.980;8.138;2022-12-17T04:46:57;100902.73;;;-9.46
34023;BMP280;20673;48.980;8.138;2022-12-17T04:49:41;100905.17;;;-9.48
34023;BMP280;20673;48.980;8.138;2022-12-17T04:52:26;100908.97;;;-9.48
34023;BMP280;20673;48.980;8.138;2022-12-17T04:55:10;100906.51;;;-9.50
34023;BMP280;20673;48.980;8.138;2022-12-17T04:58:06;100907.58;;;-9.55
34023;BMP280;20673;48.980;8.138;2022-12-17T05:00:52;100915.56;;;-9.53
34023;BMP280;20673;48.980;8.138;2022-12-17T05:03:36;100920.91;;;-9.56
34023;BMP280;20673;48.980;8.138;2022-12-17T05:06:21;100924.17;;;-9.54
34023;BMP280;20673;48.980;8.138;2022-12-17T05:09:05;100920.62;;;-9.54
34023;BMP280;20673;48.980;8.138;2022-12-17T05:11:50;100925.12;;;-9.45
34023;BMP280;20673;48.980;8.138;2022-12-17T05:14:34;100928.29;;;-9.47
34023;BMP280;20673;48.980;8.138;2022-12-17T05:17:09;100928.18;;;-9.40
34023;BMP280;20673;48.980;8.138;2022-12-17T05:19:53;100930.47;;;-9.36
34023;BMP280;20673;48.980;8.138;2022-12-17T05:22:37;100926.97;;;-9.31
34023;BMP280;20673;48.980;8.138;2022-12-17T05:25:21;100937.18;;;-9.25
34023;BMP280;20673;48.980;8.138;2022-12-17T05:28:06;100939.81;;;-9.12
34023;BMP280;20673;48.980;8.138;2022-12-17T05:30:52;100949.17;;;-9.03
34023;BMP280;20673;48.980;8.138;2022-12-17T05:33:36;100945.93;;;-8.94
34023;BMP280;20673;48.980;8.138;2022-12-17T05:36:21;100947.39;;;-8.87
34023;BMP280;20673;48.980;8.138;2022-12-17T05:39:05;100949.43;;;-8.76
34023;BMP280;20673;48.980;8.138;2022-12-17T05:41:49;100948.36;;;-8.71
34023;BMP280;20673;48.980;8.138;2022-12-17T05:44:33;100952.40;;;-8.61
34023;BMP280;20673;48.980;8.138;2022-12-17T05:47:17;100952.08;;;-8.53
34023;BMP280;20673;48.980;8.138;2022-12-17T05:50:01;100952.22;;;-8.48
34023;BMP280;20673;48.980;8.138;2022-12-17T05:52:46;100951.51;;;-8.40
34023;BMP280;20673;48.980;8.138;2022-12-17T05:55:30;100953.35;;;-8.33
34023;BMP280;20673;48.980;8.138;2022-12-17T05:58:15;100945.56;;;-8.29
34023;BMP280;20673;48.980;8.138;2022-12-17T06:01:01;100953.25;;;-8.20
34023;BMP280;20673;48.980;8.138;2022-12-17T06:03:46;100954.68;;;-8.14
34023;BMP280;20673;48.980;8.138;2022-12-17T06:06:31;100963.81;;;-8.06
34023;BMP280;20673;48.980;8.138;2022-12-17T06:09:15;100964.73;;;-7.99
34023;BMP280;20673;48.980;8.138;2022-12-17T06:11:59;100964.31;;;-7.92
34023;BMP280;20673;48.980;8.138;2022-12-17T06:14:40;100964.37;;;-7.86
34023;BMP280;20673;48.980;8.138;2022-12-17T06:17:24;100968.07;;;-7.79
34023;BMP280;20673;48.980;8.138;2022-12-17T06:20:09;100967.51;;;-7.70
34023;BMP280;20673;48.980;8.138;2022-12-17T06:23:08;100964.00;;;-7.64
34023;BMP280;20673;48.980;8.138;2022-12-17T06:25:54;100967.70;;;-7.50
34023;BMP280;20673;48.980;8.138;2022-12-17T06:28:38;100970.63;;;-7.41
34023;BMP280;20673;48.980;8.138;2022-12-17T06:31:23;100972.81;;;-7.36
34023;BMP280;20673;48.980;8.138;2022-12-17T06:34:07;100980.30;;;-7.28
34023;BMP280;20673;48.980;8.138;2022-12-17T06:36:52;100981.93;;;-7.22
34023;BMP280;20673;48.980;8.138;2022-12-17T06:39:36;100988.85;;;-7.12
34023;BMP280;20673;48.980;8.138;2022-12-17T06:42:20;100989.17;;;-7.03
34023;BMP280;20673;48.980;8.138;2022-12-17T06:45:06;100992.16;;;-6.94
34023;BMP280;20673;48.980;8.138;2022-12-17T06:47:50;100995.47;;;-6.86
34023;BMP280;20673;48.980;8.138;2022-12-17T06:50:36;101001.72;;;-6.79
34023;BMP280;20673;48.980;8.138;2022-12-17T06:53:20;101005.90;;;-6.67
34023;BMP280;20673;48.980;8.138;2022-12-17T06:56:05;101006.72;;;-6.62
34023;BMP280;20673;48.980;8.138;2022-12-17T06:58:49;101005.78;;;-6.55
34023;BMP280;20673;48.980;8.138;2022-12-17T07:01:33;101006.25;;;-6.46
34023;BMP280;20673;48.980;8.138;2022-12-17T07:04:18;101006.94;;;-6.37
34023;BMP280;20673;48.980;8.138;2022-12-17T07:07:02;101007.23;;;-6.30
34023;BMP280;20673;48.980;8.138;2022-12-17T07:09:47;101013.54;;;-6.24
34023;BMP280;20673;48.980;8.138;2022-12-17T07:12:31;101021.81;;;-6.22
34023;BMP280;20673;48.980;8.138;2022-12-17T07:15:15;101022.79;;;-6.17
34023;BMP280;20673;48.980;8.138;2022-12-17T07:18:01;101019.51;;;-6.14
34023;BMP280;20673;48.980;8.138;2022-12-17T07:20:47;101032.76;;;-6.10
34023;BMP280;20673;48.980;8.138;2022-12-17T07:23:32;101040.84;;;-6.06
34023;BMP280;20673;48.980;8.138;2022-12-17T07:26:17;101049.06;;;-6.03
34023;BMP280;20673;48.980;8.138;2022-12-17T07:29:01;101052.50;;;-6.01
34023;BMP280;20673;48.980;8.138;2022-12-17T07:31:46;101059.18;;;-5.97
34023;BMP280;20673;48.980;8.138;2022-12-17T07:34:30;101062.78;;;-5.96
34023;BMP280;20673;48.980;8.138;2022-12-17T07:37:14;101066.55;;;-5.92
34023;BMP280;20673;48.980;8.138;2022-12-17T07:39:59;101071.29;;;-5.87
34023;BMP280;20673;48.980;8.138;2022-12-17T07:42:43;101070.89;;;-5.83
34023;BMP280;20673;48.980;8.138;2022-12-17T07:45:27;101081.78;;;-5.79
34023;BMP280;20673;48.980;8.138;2022-12-17T07:48:12;101078.86;;;-5.80
34023;BMP280;20673;48.980;8.138;2022-12-17T07:50:56;101086.35;;;-5.77
34023;BMP280;20673;48.980;8.138;2022-12-17T07:53:41;101090.62;;;-5.79
34023;BMP280;20673;48.980;8.138;2022-12-17T07:56:26;101096.65;;;-5.76
34023;BMP280;20673;48.980;8.138;2022-12-17T07:59:10;101097.61;;;-5.76
34023;BMP280;20673;48.980;8.138;2022-12-17T08:01:41;101102.36;;;-5.72
34023;BMP280;20673;48.980;8.138;2022-12-17T08:04:25;101107.67;;;-5.67
34023;BMP280;20673;48.980;8.138;2022-12-17T08:07:10;101113.95;;;-5.64
34023;BMP280;20673;48.980;8.138;2022-12-17T08:09:54;101118.97;;;-5.58
34023;BMP280;20673;48.980;8.138;2022-12-17T08:12:39;101123.50;;;-5.53
34023;BMP280;20673;48.980;8.138;2022-12-17T08:15:23;101126.15;;;-5.51
34023;BMP280;20673;48.980;8.138;2022-12-17T08:18:08;101124.72;;;-5.49
34023;BMP280;20673;48.980;8.138;2022-12-17T08:20:52;101129.54;;;-5.41
34023;BMP280;20673;48.980;8.138;2022-12-17T08:23:36;101129.12;;;-5.34
34023;BMP280;20673;48.980;8.138;2022-12-17T08:26:20;101137.39;;;-5.28
34023;BMP280;20673;48.980;8.138;2022-12-17T08:29:05;101131.95;;;-5.24
34023;BMP280;20673;48.980;8.138;2022-12-17T08:31:49;101133.63;;;-5.18
34023;BMP280;20673;48.980;8.138;2022-12-17T08:34:34;101135.89;;;-5.12
34023;BMP280;20673;48.980;8.138;2022-12-17T08:37:18;101141.86;;;-5.02
34023;BMP280;20673;48.980;8.138;2022-12-17T08:40:02;101149.83;;;-4.90
34023;BMP280;20673;48.980;8.138;2022-12-17T08:42:42;101151.34;;;-4.91
34023;BMP280;20673;48.980;8.138;2022-12-17T08:45:27;101152.20;;;-4.81
34023;BMP280;20673;48.980;8.138;2022-12-17T08:48:11;101153.25;;;-4.80
34023;BMP280;20673;48.980;8.138;2022-12-17T08:50:56;101152.00;;;-4.89
34023;BMP280;20673;48.980;8.138;2022-12-17T08:53:40;101153.97;;;-4.76
34023;BMP280;20673;48.980;8.138;2022-12-17T08:56:25;101150.80;;;-4.75
34023;BMP280;20673;48.980;8.138;2022-12-17T08:59:09;101154.34;;;-4.70
34023;BMP280;20673;48.980;8.138;2022-12-17T09:01:54;101155.11;;;-4.69
34023;BMP280;20673;48.980;8.138;2022-12-17T09:04:38;101155.85;;;-4.61
34023;BMP280;20673;48.980;8.138;2022-12-17T09:07:22;101156.17;;;-4.61
34023;BMP280;20673;48.980;8.138;2022-12-17T09:10:08;101160.64;;;-4.58
34023;BMP280;20673;48.980;8.138;2022-12-17T09:12:53;101161.91;;;-4.69
34023;BMP280;20673;48.980;8.138;2022-12-17T09:15:37;101156.52;;;-4.66
34023;BMP280;20673;48.980;8.138;2022-12-17T09:18:21;101157.20;;;-4.69
34023;BMP280;20673;48.980;8.138;2022-12-17T09:21:06;101166.17;;;-4.56
34023;BMP280;20673;48.980;8.138;2022-12-17T09:23:50;101163.67;;;-4.56
34023;BMP280;20673;48.980;8.138;2022-12-17T09:26:35;101163.62;;;-4.45
34023;BMP280;20673;48.980;8.138;2022-12-17T09:29:19;101167.33;;;-4.50
34023;BMP280;20673;48.980;8.138;2022-12-17T09:32:04;101178.68;;;-4.42
34023;BMP280;20673;48.980;8.138;2022-12-17T09:34:48;101183.09;;;-4.46
34023;BMP280;20673;48.980;8.138;2022-12-17T09:37:32;101187.29;;;-4.39
34023;BMP280;20673;48.980;8.138;2022-12-17T09:40:21;101198.54;;;-4.41
34023;BMP280;20673;48.980;8.138;2022-12-17T09:46:14;101207.45;;;-4.22
34023;BMP280;20673;48.980;8.138;2022-12-17T09:52:19;101211.61;;;-4.13
34023;BMP280;20673;48.980;8.138;2022-12-17T09:55:12;101204.15;;;-4.12
34023;BMP280;20673;48.980;8.138;2022-12-17T09:57:51;101209.01;;;-4.03
34023;BMP280;20673;48.980;8.138;2022-12-17T10:00:35;101202.47;;;-4.02
34023;BMP280;20673;48.980;8.138;2022-12-17T10:03:21;101213.61;;;-4.06
34023;BMP280;20673;48.980;8.138;2022-12-17T10:06:12;101213.09;;;-4.11
34023;BMP280;20673;48.980;8.138;2022-12-17T10:09:02;101209.92;;;-4.27
34023;BMP280;20673;48.980;8.138;2022-12-17T10:11:47;101205.83;;;-4.23
34023;BMP280;20673;48.980;8.138;2022-12-17T10:14:31;101207.92;;;-4.06
34023;BMP280;20673;48.980;8.138;2022-12-17T10:17:18;101209.92;;;-4.05
34023;BMP280;20673;48.980;8.138;2022-12-17T10:20:07;101212.59;;;-4.11
34023;BMP280;20673;48.980;8.138;2022-12-17T10:22:49;101210.51;;;-4.17
34023;BMP280;20673;48.980;8.138;2022-12-17T10:25:35;101211.49;;;-4.07
34023;BMP280;20673;48.980;8.138;2022-12-17T10:28:21;101201.89;;;-4.11
34023;BMP280;20673;48.980;8.138;2022-12-17T10:31:15;101202.03;;;-4.05
34023;BMP280;20673;48.980;8.138;2022-12-17T10:33:46;101202.54;;;-4.09
34023;BMP280;20673;48.980;8.138;2022-12-17T10:36:31;101198.00;;;-3.96
34023;BMP280;20673;48.980;8.138;2022-12-17T10:39:17;101200.31;;;-3.99
34023;BMP280;20673;48.980;8.138;2022-12-17T10:42:02;101199.78;;;-3.96
34023;BMP280;20673;48.980;8.138;2022-12-17T10:44:47;101198.47;;;-4.03
34023;BMP280;20673;48.980;8.138;2022-12-17T10:47:32;101198.17;;;-3.95
34023;BMP280;20673;48.980;8.138;2022-12-17T10:50:18;101199.78;;;-3.95
34023;BMP280;20673;48.980;8.138;2022-12-17T10:53:04;101202.89;;;-3.75
34023;BMP280;20673;48.980;8.138;2022-12-17T10:55:54;101198.59;;;-3.72
34023;BMP280;20673;48.980;8.138;2022-12-17T10:58:45;101201.73;;;-3.67
34023;BMP280;20673;48.980;8.138;2022-12-17T11:01:30;101205.47;;;-3.69
34023;BMP280;20673;48.980;8.138;2022-12-17T11:04:36;101199.82;;;-3.73
34023;BMP280;20673;48.980;8.138;2022-12-17T11:07:23;101206.18;;;-3.60
34023;BMP280;20673;48.980;8.138;2022-12-17T11:10:14;101199.59;;;-3.61
34023;BMP280;20673;48.980;8.138;2022-12-17T11:13:02;101200.06;;;-3.65
34023;BMP280;20673;48.980;8.138;2022-12-17T11:15:52;101207.25;;;-3.69
34023;BMP280;20673;48.980;8.138;2022-12-17T11:18:50;101209.01;;;-3.79
34023;BMP280;20673;48.980;8.138;2022-12-17T11:21:40;101209.54;;;-3.92
34023;BMP280;20673;48.980;8.138;2022-12-17T11:24:28;101209.83;;;-3.87
34023;BMP280;20673;48.980;8.138;2022-12-17T11:27:16;101207.39;;;-3.79
34023;BMP280;20673;48.980;8.138;2022-12-17T11:30:01;101216.37;;;-3.91
34023;BMP280;20673;48.980;8.138;2022-12-17T11:35:47;101222.03;;;-3.85
34023;BMP280;20673;48.980;8.138;2022-12-17T11:38:38;101221.82;;;-3.71
34023;BMP280;20673;48.980;8.138;2022-12-17T11:41:50;101221.20;;;-3.88
34023;BMP280;20673;48.980;8.138;2022-12-17T11:47:45;101223.28;;;-3.72
34023;BMP280;20673;48.980;8.138;2022-12-17T11:50:30;101219.85;;;-3.75
34023;BMP280;20673;48.980;8.138;2022-12-17T11:56:22;101228.66;;;-3.62
34023;BMP280;20673;48.980;8.138;2022-12-17T11:59:15;101227.04;;;-3.62
34023;BMP280;20673;48.980;8.138;2022-12-17T12:08:54;101222.97;;;-3.44
34023;BMP280;20673;48.980;8.138;2022-12-17T12:10:41;101224.18;;;-3.35
34023;BMP280;20673;48.980;8.138;2022-12-17T12:13:29;101230.32;;;-3.36
34023;BMP280;20673;48.980;8.138;2022-12-17T12:19:29;101217.00;;;-3.49
34023;BMP280;20673;48.980;8.138;2022-12-17T12:22:19;101211.03;;;-3.55
34023;BMP280;20673;48.980;8.138;2022-12-17T12:25:24;101212.48;;;-3.54
34023;BMP280;20673;48.980;8.138;2022-12-17T12:33:59;101225.08;;;-3.65
34023;BMP280;20673;48.980;8.138;2022-12-17T12:36:42;101223.86;;;-3.62
34023;BMP280;20673;48.980;8.138;2022-12-17T12:39:38;101223.48;;;-3.59
34023;BMP280;20673;48.980;8.138;2022-12-17T12:42:26;101221.87;;;-3.50
34023;BMP280;20673;48.980;8.138;2022-12-17T12:45:20;101226.58;;;-3.49
34023;BMP280;20673;48.980;8.138;2022-12-17T12:51:24;101216.88;;;-3.31
34023;BMP280;20673;48.980;8.138;2022-12-17T12:54:24;101215.03;;;-3.38
34023;BMP280;20673;48.980;8.138;2022-12-17T12:57:28;101207.40;;;-3.28
34023;BMP280;20673;48.980;8.138;2022-12-17T13:03:30;101204.72;;;-3.26
34023;BMP280;20673;48.980;8.138;2022-12-17T13:14:46;101205.78;;;-3.28
34023;BMP280;20673;48.980;8.138;2022-12-17T13:17:20;101206.03;;;-3.47
34023;BMP280;20673;48.980;8.138;2022-12-17T13:19:57;101208.90;;;-3.44
34023;BMP280;20673;48.980;8.138;2022-12-17T13:24:46;101205.84;;;-3.51
34023;BMP280;20673;48.980;8.138;2022-12-17T13:33:34;101199.25;;;-3.44
34023;BMP280;20673;48.980;8.138;2022-12-17T13:40:42;101210.56;;;-3.51
34023;BMP280;20673;48.980;8.138;2022-12-17T13:43:15;101213.15;;;-3.51
34023;BMP280;20673;48.980;8.138;2022-12-17T13:45:42;101215.31;;;-3.55
34023;BMP280;20673;48.980;8.138;2022-12-17T13:48:17;101219.31;;;-3.61
34023;BMP280;20673;48.980;8.138;2022-12-17T13:50:38;101218.65;;;-3.61
34023;BMP280;20673;48.980;8.138;2022-12-17T13:53:11;101222.26;;;-3.68
34023;BMP280;20673;48.980;8.138;2022-12-17T13:55:37;101217.29;;;-3.62
34023;BMP280;20673;48.980;8.138;2022-12-17T13:58:04;101225.74;;;-3.62
34023;BMP280;20673;48.980;8.138;2022-12-17T14:00:30;101229.14;;;-3.52
34023;BMP280;20673;48.980;8.138;2022-12-17T14:03:08;101225.82;;;-3.53
34023;BMP280;20673;48.980;8.138;2022-12-17T14:05:33;101223.65;;;-3.56
34023;BMP280;20673;48.980;8.138;2022-12-17T14:08:01;101219.15;;;-3.54
34023;BMP280;20673;48.980;8.138;2022-12-17T14:10:28;101213.06;;;-3.51
34023;BMP280;20673;48.980;8.138;2022-12-17T14:13:08;101212.11;;;-3.60
34023;BMP280;20673;48.980;8.138;2022-12-17T14:15:36;101212.46;;;-3.66
34023;BMP280;20673;48.980;8.138;2022-12-17T14:18:02;101214.40;;;-3.68
34023;BMP280;20673;48.980;8.138;2022-12-17T14:20:34;101216.14;;;-3.71
34023;BMP280;20673;48.980;8.138;2022-12-17T14:23:07;101216.47;;;-3.71
34023;BMP280;20673;48.980;8.138;2022-12-17T14:25:37;101215.31;;;-3.74
34023;BMP280;20673;48.980;8.138;2022-12-17T14:28:28;101219.18;;;-3.78
34023;BMP280;20673;48.980;8.138;2022-12-17T14:30:51;101224.61;;;-3.77
34023;BMP280;20673;48.980;8.138;2022-12-17T14:33:25;101225.47;;;-3.75
34023;BMP280;20673;48.980;8.138;2022-12-17T14:35:54;101219.95;;;-3.75
34023;BMP280;20673;48.980;8.138;2022-12-17T14:38:20;101218.69;;;-3.78
34023;BMP280;20673;48.980;8.138;2022-12-17T14:40:46;101228.12;;;-3.77
34023;BMP280;20673;48.980;8.138;2022-12-17T14:43:13;101226.75;;;-3.84
34023;BMP280;20673;48.980;8.138;2022-12-17T14:45:48;101229.61;;;-3.83
34023;BMP280;20673;48.980;8.138;2022-12-17T14:48:34;101236.65;;;-3.83
34023;BMP280;20673;48.980;8.138;2022-12-17T14:51:23;101241.78;;;-3.84
34023;BMP280;20673;48.980;8.138;2022-12-17T14:53:50;101240.80;;;-3.84
34023;BMP280;20673;48.980;8.138;2022-12-17T14:56:22;101235.48;;;-3.88
34023;BMP280;20673;48.980;8.138;2022-12-17T14:58:48;101240.11;;;-3.87
34023;BMP280;20673;48.980;8.138;2022-12-17T15:01:14;101228.79;;;-3.84
34023;BMP280;20673;48.980;8.138;2022-12-17T15:03:42;101231.84;;;-3.80
34023;BMP280;20673;48.980;8.138;2022-12-17T15:06:14;101233.97;;;-3.77
34023;BMP280;20673;48.980;8.138;2022-12-17T15:08:42;101232.34;;;-3.77
34023;BMP280;20673;48.980;8.138;2022-12-17T15:11:13;101235.50;;;-3.76
34023;BMP280;20673;48.980;8.138;2022-12-17T15:13:39;101233.51;;;-3.81
34023;BMP280;20673;48.980;8.138;2022-12-17T15:16:06;101236.17;;;-3.82
34023;BMP280;20673;48.980;8.138;2022-12-17T15:18:32;101238.43;;;-3.84
34023;BMP280;20673;48.980;8.138;2022-12-17T15:20:58;101243.28;;;-3.88
34023;BMP280;20673;48.980;8.138;2022-12-17T15:23:24;101238.56;;;-3.90
34023;BMP280;20673;48.980;8.138;2022-12-17T15:25:51;101237.82;;;-3.98
34023;BMP280;20673;48.980;8.138;2022-12-17T15:28:20;101239.43;;;-4.00
34023;BMP280;20673;48.980;8.138;2022-12-17T15:30:47;101246.29;;;-4.02
34023;BMP280;20673;48.980;8.138;2022-12-17T15:33:14;101253.65;;;-4.04
34023;BMP280;20673;48.980;8.138;2022-12-17T15:35:41;101251.20;;;-4.07
34023;BMP280;20673;48.980;8.138;2022-12-17T15:38:07;101252.81;;;-4.09
34023;BMP280;20673;48.980;8.138;2022-12-17T15:40:35;101256.81;;;-4.11
34023;BMP280;20673;48.980;8.138;2022-12-17T15:43:01;101253.54;;;-4.14
34023;BMP280;20673;48.980;8.138;2022-12-17T15:48:06;101250.97;;;-4.19
34023;BMP280;20673;48.980;8.138;2022-12-17T15:50:33;101244.73;;;-4.19
34023;BMP280;20673;48.980;8.138;2022-12-17T15:52:59;101243.33;;;-4.20
34023;BMP280;20673;48.980;8.138;2022-12-17T15:55:25;101239.57;;;-4.24
34023;BMP280;20673;48.980;8.138;2022-12-17T15:57:51;101242.39;;;-4.25
34023;BMP280;20673;48.980;8.138;2022-12-17T16:00:17;101246.49;;;-4.27
34023;BMP280;20673;48.980;8.138;2022-12-17T16:02:43;101247.55;;;-4.28
34023;BMP280;20673;48.980;8.138;2022-12-17T16:05:10;101245.80;;;-4.32
34023;BMP280;20673;48.980;8.138;2022-12-17T16:07:37;101244.81;;;-4.33
34023;BMP280;20673;48.980;8.138;2022-12-17T16:10:04;101245.80;;;-4.32
34023;BMP280;20673;48.980;8.138;2022-12-17T16:12:30;101244.95;;;-4.29
34023;BMP280;20673;48.980;8.138;2022-12-17T16:14:56;101241.65;;;-4.32
34023;BMP280;20673;48.980;8.138;2022-12-17T16:17:23;101242.43;;;-4.35
34023;BMP280;20673;48.980;8.138;2022-12-17T16:19:49;101245.47;;;-4.33
34023;BMP280;20673;48.980;8.138;2022-12-17T16:22:15;101248.93;;;-4.33
34023;BMP280;20673;48.980;8.138;2022-12-17T16:24:41;101245.70;;;-4.32
34023;BMP280;20673;48.980;8.138;2022-12-17T16:27:07;101245.34;;;-4.35